sensor_id;sensor_type;location;lat;lon;timestamp;pressure;altitude;pressure_sealevel;temperature;humidity
38880;BME280;25887;30.194;-97.880;2023-04-01T00:01:23;98077.56;;;31.27;43.51
38880;BME280;25887;30.194;-97.880;2023-04-01T00:03:49;98075.19;;;31.24;43.34
38880;BME280;25887;30.194;-97.880;2023-04-01T00:06:17;98096.44;;;31.24;43.29
38880;BME280;25887;30.194;-97.880;2023-04-01T00:08:44;98103.69;;;31.22;43.62
38880;BME280;25887;30.194;-97.880;2023-04-01T00:11:10;98112.59;;;31.21;43.49
38880;BME280;25887;30.194;-97.880;2023-04-01T00:13:37;98126.72;;;31.21;43.83
38880;BME280;25887;30.194;-97.880;2023-04-01T00:16:03;98123.22;;;31.21;43.66
38880;BME280;25887;30.194;-97.880;2023-04-01T00:18:30;98119.84;;;31.19;43.35
38880;BME280;25887;30.194;-97.880;2023-04-01T00:20:56;98126.28;;;31.16;44.02
38880;BME280;25887;30.194;-97.880;2023-04-01T00:23:23;98128.22;;;31.14;43.78
38880;BME280;25887;30.194;-97.880;2023-04-01T00:25:49;98138.94;;;31.13;43.64
38880;BME280;25887;30.194;-97.880;2023-04-01T00:28:17;98141.88;;;31.10;42.79
38880;BME280;25887;30.194;-97.880;2023-04-01T00:30:44;98142.16;;;31.06;42.46
38880;BME280;25887;30.194;-97.880;2023-04-01T00:33:10;98156.53;;;31.04;41.75
38880;BME280;25887;30.194;-97.880;2023-04-01T00:35:37;98165.59;;;31.01;41.31
38880;BME280;25887;30.194;-97.880;2023-04-01T00:38:05;98167.69;;;30.98;40.53
38880;BME280;25887;30.194;-97.880;2023-04-01T00:40:36;98175.91;;;30.95;40.34
38880;BME280;25887;30.194;-97.880;2023-04-01T00:43:14;98174.63;;;30.89;39.86
38880;BME280;25887;30.194;-97.880;2023-04-01T00:45:42;98180.47;;;30.83;38.96
38880;BME280;25887;30.194;-97.880;2023-04-01T00:48:14;98184.50;;;30.77;38.87
38880;BME280;25887;30.194;-97.880;2023-04-01T00:50:46;98183.19;;;30.72;38.59
38880;BME280;25887;30.194;-97.880;2023-04-01T00:53:14;98191.66;;;30.66;38.30
38880;BME280;25887;30.194;-97.880;2023-04-01T00:55:45;98196.50;;;30.61;37.82
38880;BME280;25887;30.194;-97.880;2023-04-01T00:58:17;98204.97;;;30.55;37.49
38880;BME280;25887;30.194;-97.880;2023-04-01T01:00:46;98211.75;;;30.47;37.41
38880;BME280;25887;30.194;-97.880;2023-04-01T01:03:13;98217.56;;;30.41;37.03
38880;BME280;25887;30.194;-97.880;2023-04-01T01:06:07;98223.41;;;30.35;36.64
38880;BME280;25887;30.194;-97.880;2023-04-01T01:12:11;98243.25;;;30.20;36.89
38880;BME280;25887;30.194;-97.880;2023-04-01T01:17:22;98254.44;;;30.01;36.65
38880;BME280;25887;30.194;-97.880;2023-04-01T01:20:14;98259.66;;;29.91;36.48
38880;BME280;25887;30.194;-97.880;2023-04-01T01:31:36;98281.00;;;29.56;36.39
38880;BME280;25887;30.194;-97.880;2023-04-01T01:36:55;98289.66;;;29.36;36.09
38880;BME280;25887;30.194;-97.880;2023-04-01T01:39:26;98288.59;;;29.27;35.48
38880;BME280;25887;30.194;-97.880;2023-04-01T01:41:57;98299.88;;;29.18;35.25
38880;BME280;25887;30.194;-97.880;2023-04-01T01:44:28;98305.75;;;29.10;35.15
38880;BME280;25887;30.194;-97.880;2023-04-01T01:46:56;98308.13;;;29.02;34.90
38880;BME280;25887;30.194;-97.880;2023-04-01T01:49:23;98321.72;;;28.98;35.34
38880;BME280;25887;30.194;-97.880;2023-04-01T01:51:51;98326.72;;;28.90;34.89
38880;BME280;25887;30.194;-97.880;2023-04-01T01:54:20;98323.94;;;28.80;34.57
38880;BME280;25887;30.194;-97.880;2023-04-01T01:56:55;98324.53;;;28.72;34.79
38880;BME280;25887;30.194;-97.880;2023-04-01T01:59:25;98338.31;;;28.65;34.62
38880;BME280;25887;30.194;-97.880;2023-04-01T02:01:53;98345.97;;;28.56;34.73
38880;BME280;25887;30.194;-97.880;2023-04-01T02:04:21;98346.53;;;28.49;34.25
38880;BME280;25887;30.194;-97.880;2023-04-01T02:07:01;98361.16;;;28.42;34.56
38880;BME280;25887;30.194;-97.880;2023-04-01T02:09:28;98370.81;;;28.30;34.20
38880;BME280;25887;30.194;-97.880;2023-04-01T02:12:06;98370.38;;;28.23;34.09
38880;BME280;25887;30.194;-97.880;2023-04-01T02:14:53;98376.44;;;28.13;34.67
38880;BME280;25887;30.194;-97.880;2023-04-01T02:17:23;98372.00;;;28.00;34.27
38880;BME280;25887;30.194;-97.880;2023-04-01T02:19:59;98377.00;;;27.92;34.34
38880;BME280;25887;30.194;-97.880;2023-04-01T02:22:47;98378.38;;;27.85;34.52
38880;BME280;25887;30.194;-97.880;2023-04-01T02:25:24;98386.34;;;27.72;34.27
38880;BME280;25887;30.194;-97.880;2023-04-01T02:27:51;98388.53;;;27.66;34.52
38880;BME280;25887;30.194;-97.880;2023-04-01T02:30:20;98384.09;;;27.54;34.01
38880;BME280;25887;30.194;-97.880;2023-04-01T02:32:47;98390.84;;;27.45;34.38
38880;BME280;25887;30.194;-97.880;2023-04-01T02:35:16;98405.41;;;27.38;34.38
38880;BME280;25887;30.194;-97.880;2023-04-01T02:37:43;98414.69;;;27.31;34.21
38880;BME280;25887;30.194;-97.880;2023-04-01T02:40:13;98424.16;;;27.20;34.51
38880;BME280;25887;30.194;-97.880;2023-04-01T02:42:40;98421.88;;;27.16;34.47
38880;BME280;25887;30.194;-97.880;2023-04-01T02:45:08;98433.66;;;27.10;34.34
38880;BME280;25887;30.194;-97.880;2023-04-01T02:47:34;98429.81;;;27.02;34.45
38880;BME280;25887;30.194;-97.880;2023-04-01T02:50:01;98442.53;;;26.95;34.42
38880;BME280;25887;30.194;-97.880;2023-04-01T02:52:28;98437.78;;;26.87;34.43
38880;BME280;25887;30.194;-97.880;2023-04-01T02:54:56;98447.13;;;26.79;34.63
38880;BME280;25887;30.194;-97.880;2023-04-01T02:57:23;98450.38;;;26.70;34.76
38880;BME280;25887;30.194;-97.880;2023-04-01T02:59:49;98453.56;;;26.60;34.58
38880;BME280;25887;30.194;-97.880;2023-04-01T03:05:34;98461.31;;;26.35;34.70
38880;BME280;25887;30.194;-97.880;2023-04-01T03:08:01;98467.16;;;26.26;34.73
38880;BME280;25887;30.194;-97.880;2023-04-01T03:10:29;98468.69;;;26.16;34.63
38880;BME280;25887;30.194;-97.880;2023-04-01T03:12:56;98468.50;;;26.04;34.53
38880;BME280;25887;30.194;-97.880;2023-04-01T03:15:22;98475.28;;;25.94;34.95
38880;BME280;25887;30.194;-97.880;2023-04-01T03:17:48;98479.31;;;25.86;34.81
38880;BME280;25887;30.194;-97.880;2023-04-01T03:20:15;98481.66;;;25.76;34.75
38880;BME280;25887;30.194;-97.880;2023-04-01T03:22:41;98489.09;;;25.68;34.80
38880;BME280;25887;30.194;-97.880;2023-04-01T03:25:08;98492.28;;;25.59;34.84
38880;BME280;25887;30.194;-97.880;2023-04-01T03:27:35;98506.75;;;25.51;34.76
38880;BME280;25887;30.194;-97.880;2023-04-01T03:30:04;98508.91;;;25.45;34.91
38880;BME280;25887;30.194;-97.880;2023-04-01T03:32:30;98509.38;;;25.37;34.95
38880;BME280;25887;30.194;-97.880;2023-04-01T03:34:57;98514.03;;;25.32;34.75
38880;BME280;25887;30.194;-97.880;2023-04-01T03:44:07;98533.22;;;25.02;35.03
38880;BME280;25887;30.194;-97.880;2023-04-01T03:46:34;98531.09;;;24.93;35.15
38880;BME280;25887;30.194;-97.880;2023-04-01T03:49:00;98537.63;;;24.86;35.07
38880;BME280;25887;30.194;-97.880;2023-04-01T03:51:26;98550.97;;;24.83;35.01
38880;BME280;25887;30.194;-97.880;2023-04-01T03:53:54;98549.59;;;24.76;35.02
38880;BME280;25887;30.194;-97.880;2023-04-01T03:56:22;98556.03;;;24.70;35.19
38880;BME280;25887;30.194;-97.880;2023-04-01T03:58:48;98560.69;;;24.65;34.86
38880;BME280;25887;30.194;-97.880;2023-04-01T04:01:19;98558.41;;;24.59;35.02
38880;BME280;25887;30.194;-97.880;2023-04-01T04:03:46;98555.25;;;24.53;35.04
38880;BME280;25887;30.194;-97.880;2023-04-01T04:06:14;98566.84;;;24.49;34.81
38880;BME280;25887;30.194;-97.880;2023-04-01T04:08:41;98554.97;;;24.41;35.08
38880;BME280;25887;30.194;-97.880;2023-04-01T04:11:09;98556.34;;;24.31;35.00
38880;BME280;25887;30.194;-97.880;2023-04-01T04:13:36;98571.66;;;24.23;34.89
38880;BME280;25887;30.194;-97.880;2023-04-01T04:16:03;98566.06;;;24.13;35.02
38880;BME280;25887;30.194;-97.880;2023-04-01T04:18:29;98568.81;;;24.10;34.78
38880;BME280;25887;30.194;-97.880;2023-04-01T04:20:55;98570.00;;;24.05;34.88
38880;BME280;25887;30.194;-97.880;2023-04-01T04:23:22;98583.28;;;24.02;34.93
38880;BME280;25887;30.194;-97.880;2023-04-01T04:26:06;98586.00;;;24.00;34.59
38880;BME280;25887;30.194;-97.880;2023-04-01T04:28:33;98593.41;;;23.92;34.86
38880;BME280;25887;30.194;-97.880;2023-04-01T04:31:01;98590.06;;;23.88;34.87
38880;BME280;25887;30.194;-97.880;2023-04-01T04:33:28;98590.25;;;23.85;34.60
38880;BME280;25887;30.194;-97.880;2023-04-01T04:35:58;98600.06;;;23.82;34.89
38880;BME280;25887;30.194;-97.880;2023-04-01T04:38:25;98596.88;;;23.75;34.69
38880;BME280;25887;30.194;-97.880;2023-04-01T04:40:52;98597.00;;;23.72;34.92
38880;BME280;25887;30.194;-97.880;2023-04-01T04:43:18;98600.09;;;23.63;34.87
38880;BME280;25887;30.194;-97.880;2023-04-01T04:45:45;98599.47;;;23.58;34.77
38880;BME280;25887;30.194;-97.880;2023-04-01T04:48:14;98598.06;;;23.51;34.92
38880;BME280;25887;30.194;-97.880;2023-04-01T04:50:47;98603.59;;;23.45;34.57
38880;BME280;25887;30.194;-97.880;2023-04-01T04:53:15;98609.13;;;23.39;34.76
38880;BME280;25887;30.194;-97.880;2023-04-01T04:55:48;98618.00;;;23.36;34.52
38880;BME280;25887;30.194;-97.880;2023-04-01T04:58:15;98617.47;;;23.29;34.78
38880;BME280;25887;30.194;-97.880;2023-04-01T05:00:42;98621.28;;;23.22;34.94
38880;BME280;25887;30.194;-97.880;2023-04-01T05:03:09;98619.72;;;23.18;35.06
38880;BME280;25887;30.194;-97.880;2023-04-01T05:05:35;98633.91;;;23.14;34.95
38880;BME280;25887;30.194;-97.880;2023-04-01T05:08:02;98639.34;;;23.10;34.82
38880;BME280;25887;30.194;-97.880;2023-04-01T05:10:28;98647.44;;;23.05;34.75
38880;BME280;25887;30.194;-97.880;2023-04-01T05:12:56;98652.97;;;22.99;34.55
38880;BME280;25887;30.194;-97.880;2023-04-01T05:15:23;98664.56;;;22.93;34.64
38880;BME280;25887;30.194;-97.880;2023-04-01T05:17:50;98672.66;;;22.89;34.44
38880;BME280;25887;30.194;-97.880;2023-04-01T05:20:17;98663.25;;;22.83;34.84
38880;BME280;25887;30.194;-97.880;2023-04-01T05:22:43;98657.44;;;22.76;34.81
38880;BME280;25887;30.194;-97.880;2023-04-01T05:25:09;98668.06;;;22.73;34.65
38880;BME280;25887;30.194;-97.880;2023-04-01T05:27:35;98665.72;;;22.67;34.83
38880;BME280;25887;30.194;-97.880;2023-04-01T05:30:02;98666.91;;;22.60;34.90
38880;BME280;25887;30.194;-97.880;2023-04-01T05:32:30;98666.16;;;22.57;34.54
38880;BME280;25887;30.194;-97.880;2023-04-01T05:34:56;98667.94;;;22.56;34.47
38880;BME280;25887;30.194;-97.880;2023-04-01T05:37:23;98661.16;;;22.52;34.94
38880;BME280;25887;30.194;-97.880;2023-04-01T05:39:49;98661.31;;;22.49;34.79
38880;BME280;25887;30.194;-97.880;2023-04-01T05:42:15;98666.72;;;22.44;35.35
38880;BME280;25887;30.194;-97.880;2023-04-01T05:44:41;98659.22;;;22.37;35.04
38880;BME280;25887;30.194;-97.880;2023-04-01T05:47:08;98673.63;;;22.27;34.95
38880;BME280;25887;30.194;-97.880;2023-04-01T05:49:34;98673.19;;;22.15;35.58
38880;BME280;25887;30.194;-97.880;2023-04-01T05:52:00;98682.34;;;22.05;35.50
38880;BME280;25887;30.194;-97.880;2023-04-01T05:54:26;98682.81;;;21.93;35.46
38880;BME280;25887;30.194;-97.880;2023-04-01T05:56:53;98681.56;;;21.81;35.33
38880;BME280;25887;30.194;-97.880;2023-04-01T05:59:19;98679.34;;;21.72;35.26
38880;BME280;25887;30.194;-97.880;2023-04-01T06:01:45;98683.19;;;21.63;35.45
38880;BME280;25887;30.194;-97.880;2023-04-01T06:04:16;98685.13;;;21.58;35.75
38880;BME280;25887;30.194;-97.880;2023-04-01T06:06:43;98687.19;;;21.50;35.78
38880;BME280;25887;30.194;-97.880;2023-04-01T06:09:19;98690.81;;;21.46;35.90
38880;BME280;25887;30.194;-97.880;2023-04-01T06:12:13;98691.06;;;21.40;35.88
38880;BME280;25887;30.194;-97.880;2023-04-01T06:14:54;98689.03;;;21.25;35.96
38880;BME280;25887;30.194;-97.880;2023-04-01T06:17:51;98686.63;;;21.19;36.07
38880;BME280;25887;30.194;-97.880;2023-04-01T06:26:18;98689.25;;;20.95;36.16
38880;BME280;25887;30.194;-97.880;2023-04-01T06:51:25;98684.50;;;20.33;36.62
38880;BME280;25887;30.194;-97.880;2023-04-01T06:56:26;98684.22;;;20.16;36.58
38880;BME280;25887;30.194;-97.880;2023-04-01T06:59:01;98676.66;;;20.08;36.51
38880;BME280;25887;30.194;-97.880;2023-04-01T07:01:41;98674.34;;;19.99;36.76
38880;BME280;25887;30.194;-97.880;2023-04-01T07:04:15;98674.59;;;19.91;36.71
38880;BME280;25887;30.194;-97.880;2023-04-01T07:09:35;98669.84;;;19.78;36.78
38880;BME280;25887;30.194;-97.880;2023-04-01T07:12:40;98676.00;;;19.75;36.54
38880;BME280;25887;30.194;-97.880;2023-04-01T07:15:22;98679.81;;;19.65;36.96
38880;BME280;25887;30.194;-97.880;2023-04-01T07:17:58;98680.97;;;19.55;36.96
38880;BME280;25887;30.194;-97.880;2023-04-01T07:20:31;98682.00;;;19.49;36.60
38880;BME280;25887;30.194;-97.880;2023-04-01T07:23:06;98683.75;;;19.48;36.97
38880;BME280;25887;30.194;-97.880;2023-04-01T07:25:44;98679.53;;;19.44;37.07
38880;BME280;25887;30.194;-97.880;2023-04-01T07:28:14;98678.78;;;19.41;37.16
38880;BME280;25887;30.194;-97.880;2023-04-01T07:30:59;98692.66;;;19.41;37.11
38880;BME280;25887;30.194;-97.880;2023-04-01T07:33:45;98691.03;;;19.37;37.01
38880;BME280;25887;30.194;-97.880;2023-04-01T07:36:20;98694.59;;;19.35;37.18
38880;BME280;25887;30.194;-97.880;2023-04-01T07:41:32;98699.13;;;19.28;37.13
38880;BME280;25887;30.194;-97.880;2023-04-01T07:44:49;98694.84;;;19.27;37.28
38880;BME280;25887;30.194;-97.880;2023-04-01T07:52:52;98677.59;;;19.23;37.05
38880;BME280;25887;30.194;-97.880;2023-04-01T07:55:31;98674.16;;;19.21;37.25
38880;BME280;25887;30.194;-97.880;2023-04-01T08:01:02;98677.69;;;19.20;37.14
38880;BME280;25887;30.194;-97.880;2023-04-01T08:03:59;98674.16;;;19.23;37.30
38880;BME280;25887;30.194;-97.880;2023-04-01T08:06:53;98664.66;;;19.20;37.34
38880;BME280;25887;30.194;-97.880;2023-04-01T08:09:32;98666.59;;;19.13;37.01
38880;BME280;25887;30.194;-97.880;2023-04-01T08:12:14;98672.84;;;19.08;37.29
38880;BME280;25887;30.194;-97.880;2023-04-01T08:14:49;98681.59;;;19.05;37.47
38880;BME280;25887;30.194;-97.880;2023-04-01T08:20:25;98682.44;;;19.06;37.53
38880;BME280;25887;30.194;-97.880;2023-04-01T08:23:00;98676.44;;;19.04;37.62
38880;BME280;25887;30.194;-97.880;2023-04-01T08:25:30;98676.53;;;19.01;37.48
38880;BME280;25887;30.194;-97.880;2023-04-01T08:33:47;98669.88;;;18.90;37.53
38880;BME280;25887;30.194;-97.880;2023-04-01T08:36:36;98670.75;;;18.91;37.50
38880;BME280;25887;30.194;-97.880;2023-04-01T08:39:12;98671.78;;;18.85;37.74
38880;BME280;25887;30.194;-97.880;2023-04-01T08:42:06;98673.47;;;18.86;37.69
38880;BME280;25887;30.194;-97.880;2023-04-01T08:50:01;98680.72;;;18.75;37.70
38880;BME280;25887;30.194;-97.880;2023-04-01T08:52:39;98679.91;;;18.73;37.75
38880;BME280;25887;30.194;-97.880;2023-04-01T08:55:25;98675.66;;;18.71;37.61
38880;BME280;25887;30.194;-97.880;2023-04-01T09:01:09;98676.00;;;18.57;37.74
38880;BME280;25887;30.194;-97.880;2023-04-01T09:09:30;98699.13;;;18.36;37.70
38880;BME280;25887;30.194;-97.880;2023-04-01T09:18:09;98701.03;;;18.30;37.93
38880;BME280;25887;30.194;-97.880;2023-04-01T09:38:17;98707.94;;;17.95;37.98
38880;BME280;25887;30.194;-97.880;2023-04-01T09:43:28;98709.03;;;17.87;38.09
38880;BME280;25887;30.194;-97.880;2023-04-01T09:46:17;98711.66;;;17.85;37.79
38880;BME280;25887;30.194;-97.880;2023-04-01T10:00:20;98732.06;;;17.63;38.01
38880;BME280;25887;30.194;-97.880;2023-04-01T10:06:06;98743.56;;;17.53;38.07
38880;BME280;25887;30.194;-97.880;2023-04-01T10:09:11;98745.41;;;17.48;37.96
38880;BME280;25887;30.194;-97.880;2023-04-01T10:11:58;98749.91;;;17.40;38.03
38880;BME280;25887;30.194;-97.880;2023-04-01T10:14:51;98761.28;;;17.34;38.16
38880;BME280;25887;30.194;-97.880;2023-04-01T10:17:45;98767.44;;;17.30;38.17
38880;BME280;25887;30.194;-97.880;2023-04-01T10:20:22;98768.41;;;17.24;38.11
38880;BME280;25887;30.194;-97.880;2023-04-01T10:23:32;98774.53;;;17.22;38.02
38880;BME280;25887;30.194;-97.880;2023-04-01T10:35:38;98781.81;;;17.03;38.13
38880;BME280;25887;30.194;-97.880;2023-04-01T10:44:34;98803.72;;;16.90;38.26
38880;BME280;25887;30.194;-97.880;2023-04-01T10:47:26;98800.41;;;16.82;38.43
38880;BME280;25887;30.194;-97.880;2023-04-01T10:50:17;98807.44;;;16.75;38.51
38880;BME280;25887;30.194;-97.880;2023-04-01T11:23:49;98846.19;;;16.30;38.77
38880;BME280;25887;30.194;-97.880;2023-04-01T11:26:41;98847.97;;;16.28;38.76
38880;BME280;25887;30.194;-97.880;2023-04-01T11:29:23;98854.03;;;16.27;38.81
38880;BME280;25887;30.194;-97.880;2023-04-01T11:32:02;98847.16;;;16.25;38.74
38880;BME280;25887;30.194;-97.880;2023-04-01T11:40:17;98851.53;;;16.21;38.78
38880;BME280;25887;30.194;-97.880;2023-04-01T11:43:20;98842.09;;;16.15;38.77
38880;BME280;25887;30.194;-97.880;2023-04-01T11:46:11;98845.63;;;16.11;38.83
38880;BME280;25887;30.194;-97.880;2023-04-01T11:49:06;98862.09;;;16.07;38.89
38880;BME280;25887;30.194;-97.880;2023-04-01T11:52:05;98850.84;;;16.08;38.88
38880;BME280;25887;30.194;-97.880;2023-04-01T11:54:42;98858.69;;;16.05;38.78
38880;BME280;25887;30.194;-97.880;2023-04-01T11:59:56;98861.22;;;16.08;38.84
38880;BME280;25887;30.194;-97.880;2023-04-01T12:03:30;98872.34;;;16.15;39.02
38880;BME280;25887;30.194;-97.880;2023-04-01T12:12:14;98894.78;;;16.19;38.98
38880;BME280;25887;30.194;-97.880;2023-04-01T12:17:43;98909.38;;;16.25;38.83
38880;BME280;25887;30.194;-97.880;2023-04-01T12:20:30;98912.81;;;16.27;38.91
38880;BME280;25887;30.194;-97.880;2023-04-01T12:32:20;98937.22;;;16.12;39.05
38880;BME280;25887;30.194;-97.880;2023-04-01T12:40:45;98944.22;;;16.02;39.09
38880;BME280;25887;30.194;-97.880;2023-04-01T12:51:41;98958.16;;;15.94;39.17
38880;BME280;25887;30.194;-97.880;2023-04-01T13:00:18;98966.28;;;16.34;38.88
38880;BME280;25887;30.194;-97.880;2023-04-01T13:05:40;98964.88;;;17.25;38.17
38880;BME280;25887;30.194;-97.880;2023-04-01T13:08:31;98953.38;;;17.39;38.35
38880;BME280;25887;30.194;-97.880;2023-04-01T13:11:45;98964.56;;;17.42;38.22
38880;BME280;25887;30.194;-97.880;2023-04-01T13:19:38;98965.63;;;17.32;38.29
38880;BME280;25887;30.194;-97.880;2023-04-01T13:25:00;98968.31;;;17.27;38.32
38880;BME280;25887;30.194;-97.880;2023-04-01T13:27:44;98975.25;;;17.25;38.51
38880;BME280;25887;30.194;-97.880;2023-04-01T13:30:25;98970.03;;;17.27;38.48
38880;BME280;25887;30.194;-97.880;2023-04-01T13:33:11;98972.56;;;17.32;38.45
38880;BME280;25887;30.194;-97.880;2023-04-01T13:35:56;98980.25;;;17.38;38.55
38880;BME280;25887;30.194;-97.880;2023-04-01T13:38:50;98975.78;;;17.46;38.36
38880;BME280;25887;30.194;-97.880;2023-04-01T13:41:26;98986.06;;;17.52;38.44
38880;BME280;25887;30.194;-97.880;2023-04-01T13:44:21;98986.78;;;17.60;38.48
38880;BME280;25887;30.194;-97.880;2023-04-01T13:58:00;98992.88;;;18.04;38.58
38880;BME280;25887;30.194;-97.880;2023-04-01T14:03:27;99004.50;;;18.28;38.40
38880;BME280;25887;30.194;-97.880;2023-04-01T14:06:04;99005.16;;;18.39;38.51
38880;BME280;25887;30.194;-97.880;2023-04-01T14:09:18;98999.59;;;18.54;38.43
38880;BME280;25887;30.194;-97.880;2023-04-01T14:17:30;99006.50;;;18.96;38.48
38880;BME280;25887;30.194;-97.880;2023-04-01T14:26:00;99007.16;;;19.39;38.35
38880;BME280;25887;30.194;-97.880;2023-04-01T14:37:25;99018.53;;;20.02;38.20
38880;BME280;25887;30.194;-97.880;2023-04-01T14:43:15;99019.25;;;20.37;38.03
38880;BME280;25887;30.194;-97.880;2023-04-01T14:46:04;99025.75;;;20.54;38.18
38880;BME280;25887;30.194;-97.880;2023-04-01T14:48:37;99016.56;;;20.69;38.25
38880;BME280;25887;30.194;-97.880;2023-04-01T14:51:18;99020.38;;;20.87;37.55
38880;BME280;25887;30.194;-97.880;2023-04-01T14:54:10;99012.84;;;21.04;37.46
38880;BME280;25887;30.194;-97.880;2023-04-01T14:56:43;99010.53;;;21.22;37.46
38880;BME280;25887;30.194;-97.880;2023-04-01T14:59:15;99017.75;;;21.41;37.67
38880;BME280;25887;30.194;-97.880;2023-04-01T15:02:14;99021.56;;;21.58;37.60
38880;BME280;25887;30.194;-97.880;2023-04-01T15:05:23;99024.16;;;21.83;37.14
38880;BME280;25887;30.194;-97.880;2023-04-01T15:08:05;99018.03;;;22.09;36.94
38880;BME280;25887;30.194;-97.880;2023-04-01T15:17:20;99025.47;;;22.90;36.22
38880;BME280;25887;30.194;-97.880;2023-04-01T15:40:35;99029.59;;;24.19;32.43
38880;BME280;25887;30.194;-97.880;2023-04-01T16:00:24;99070.75;;;24.95;30.01
38880;BME280;25887;30.194;-97.880;2023-04-01T16:03:14;99073.03;;;25.03;29.68
38880;BME280;25887;30.194;-97.880;2023-04-01T16:08:49;99087.06;;;25.21;28.54
38880;BME280;25887;30.194;-97.880;2023-04-01T16:14:55;99096.16;;;25.33;27.96
38880;BME280;25887;30.194;-97.880;2023-04-01T16:17:29;99072.28;;;25.37;28.51
38880;BME280;25887;30.194;-97.880;2023-04-01T16:20:18;99077.22;;;25.43;27.29
38880;BME280;25887;30.194;-97.880;2023-04-01T16:28:54;99082.16;;;25.67;27.04
38880;BME280;25887;30.194;-97.880;2023-04-01T16:31:38;99079.97;;;25.76;26.73
38880;BME280;25887;30.194;-97.880;2023-04-01T16:34:38;99076.09;;;25.83;26.14
38880;BME280;25887;30.194;-97.880;2023-04-01T16:38:12;99067.88;;;25.90;26.01
38880;BME280;25887;30.194;-97.880;2023-04-01T16:40:47;99076.16;;;25.99;25.91
38880;BME280;25887;30.194;-97.880;2023-04-01T16:49:01;99089.59;;;26.28;24.79
38880;BME280;25887;30.194;-97.880;2023-04-01T16:55:01;99071.06;;;26.47;25.02
38880;BME280;25887;30.194;-97.880;2023-04-01T16:57:52;99065.09;;;26.59;24.54
38880;BME280;25887;30.194;-97.880;2023-04-01T17:00:27;99064.59;;;26.68;24.03
38880;BME280;25887;30.194;-97.880;2023-04-01T17:12:02;99083.91;;;27.00;23.03
38880;BME280;25887;30.194;-97.880;2023-04-01T17:14:59;99077.03;;;27.13;22.90
38880;BME280;25887;30.194;-97.880;2023-04-01T17:17:41;99063.25;;;27.24;22.52
38880;BME280;25887;30.194;-97.880;2023-04-01T17:20:31;99064.44;;;27.34;22.28
38880;BME280;25887;30.194;-97.880;2023-04-01T17:23:34;99058.41;;;27.46;21.86
38880;BME280;25887;30.194;-97.880;2023-04-01T17:26:04;99059.75;;;27.54;22.37
38880;BME280;25887;30.194;-97.880;2023-04-01T17:28:49;99053.88;;;27.64;21.73
38880;BME280;25887;30.194;-97.880;2023-04-01T17:31:30;99049.56;;;27.77;21.90
38880;BME280;25887;30.194;-97.880;2023-04-01T17:34:18;99048.59;;;27.94;21.96
38880;BME280;25887;30.194;-97.880;2023-04-01T17:37:16;99051.22;;;28.09;21.70
38880;BME280;25887;30.194;-97.880;2023-04-01T17:42:46;99042.84;;;28.30;21.37
38880;BME280;25887;30.194;-97.880;2023-04-01T17:45:27;99046.72;;;28.39;21.34
38880;BME280;25887;30.194;-97.880;2023-04-01T17:53:33;99026.03;;;28.60;21.44
38880;BME280;25887;30.194;-97.880;2023-04-01T18:01:18;99012.66;;;28.49;20.59
38880;BME280;25887;30.194;-97.880;2023-04-01T18:04:06;99014.34;;;28.50;21.08
38880;BME280;25887;30.194;-97.880;2023-04-01T18:14:54;98988.25;;;28.58;20.23
38880;BME280;25887;30.194;-97.880;2023-04-01T18:20:33;98987.50;;;28.56;20.23
38880;BME280;25887;30.194;-97.880;2023-04-01T18:25:54;98970.63;;;28.71;19.83
38880;BME280;25887;30.194;-97.880;2023-04-01T18:33:36;98972.47;;;28.98;20.99
38880;BME280;25887;30.194;-97.880;2023-04-01T18:36:51;98972.09;;;29.04;20.19
38880;BME280;25887;30.194;-97.880;2023-04-01T18:45:10;98962.78;;;29.24;19.53
38880;BME280;25887;30.194;-97.880;2023-04-01T18:47:54;98956.25;;;29.29;19.52
38880;BME280;25887;30.194;-97.880;2023-04-01T18:50:43;98950.56;;;29.35;19.67
38880;BME280;25887;30.194;-97.880;2023-04-01T18:56:02;98941.25;;;29.42;19.46
38880;BME280;25887;30.194;-97.880;2023-04-01T18:58:35;98941.13;;;29.44;19.41
38880;BME280;25887;30.194;-97.880;2023-04-01T19:04:36;98942.09;;;29.43;19.29
38880;BME280;25887;30.194;-97.880;2023-04-01T19:09:54;98929.69;;;29.44;19.42
38880;BME280;25887;30.194;-97.880;2023-04-01T19:15:40;98933.38;;;29.41;19.34
38880;BME280;25887;30.194;-97.880;2023-04-01T19:20:42;98914.84;;;29.41;19.49
38880;BME280;25887;30.194;-97.880;2023-04-01T19:26:34;98907.78;;;29.54;18.85
38880;BME280;25887;30.194;-97.880;2023-04-01T19:37:02;98884.81;;;29.42;19.10
38880;BME280;25887;30.194;-97.880;2023-04-01T19:51:04;98862.16;;;29.51;19.08
38880;BME280;25887;30.194;-97.880;2023-04-01T19:59:47;98852.72;;;29.59;18.90
38880;BME280;25887;30.194;-97.880;2023-04-01T20:07:55;98846.28;;;29.51;19.00
38880;BME280;25887;30.194;-97.880;2023-04-01T20:10:46;98837.75;;;29.46;19.23
38880;BME280;25887;30.194;-97.880;2023-04-01T20:13:28;98835.44;;;29.41;18.89
38880;BME280;25887;30.194;-97.880;2023-04-01T20:16:05;98827.81;;;29.36;19.00
38880;BME280;25887;30.194;-97.880;2023-04-01T20:19:00;98827.28;;;29.31;18.98
38880;BME280;25887;30.194;-97.880;2023-04-01T20:21:45;98824.03;;;29.28;19.16
38880;BME280;25887;30.194;-97.880;2023-04-01T20:24:20;98822.75;;;29.21;19.34
38880;BME280;25887;30.194;-97.880;2023-04-01T20:26:58;98816.81;;;29.17;18.81
38880;BME280;25887;30.194;-97.880;2023-04-01T20:29:43;98803.06;;;29.12;19.37
38880;BME280;25887;30.194;-97.880;2023-04-01T20:32:28;98814.81;;;29.08;19.45
38880;BME280;25887;30.194;-97.880;2023-04-01T20:37:51;98839.88;;;29.02;19.09
38880;BME280;25887;30.194;-97.880;2023-04-01T20:40:44;98832.28;;;28.98;19.67
38880;BME280;25887;30.194;-97.880;2023-04-01T20:51:54;98810.72;;;28.77;19.62
38880;BME280;25887;30.194;-97.880;2023-04-01T20:54:44;98808.41;;;28.72;19.67
38880;BME280;25887;30.194;-97.880;2023-04-01T21:00:11;98808.16;;;28.63;19.84
38880;BME280;25887;30.194;-97.880;2023-04-01T21:09:49;98768.78;;;28.45;19.84